sensor_id;sensor_type;location;lat;lon;timestamp;pressure;altitude;pressure_sealevel;temperature
11321;BMP180;5715;48.234;14.320;2023-08-20T00:01:36;98906.00;;;29.20
11321;BMP180;5715;48.234;14.320;2023-08-20T00:04:31;98910.00;;;29.10
11321;BMP180;5715;48.234;14.320;2023-08-20T00:07:21;98909.00;;;28.90
11321;BMP180;5715;48.234;14.320;2023-08-20T00:10:09;98910.00;;;28.80
11321;BMP180;5715;48.234;14.320;2023-08-20T00:12:57;98910.00;;;28.70
11321;BMP180;5715;48.234;14.320;2023-08-20T00:15:45;98911.00;;;28.70
11321;BMP180;5715;48.234;14.320;2023-08-20T00:18:34;98907.00;;;28.60
11321;BMP180;5715;48.234;14.320;2023-08-20T00:21:26;98909.00;;;28.60
11321;BMP180;5715;48.234;14.320;2023-08-20T00:24:16;98915.00;;;28.70
11321;BMP180;5715;48.234;14.320;2023-08-20T00:27:04;98916.00;;;28.70
11321;BMP180;5715;48.234;14.320;2023-08-20T00:29:52;98918.00;;;28.60
11321;BMP180;5715;48.234;14.320;2023-08-20T00:32:40;98927.00;;;28.60
11321;BMP180;5715;48.234;14.320;2023-08-20T00:35:28;98926.00;;;28.40
11321;BMP180;5715;48.234;14.320;2023-08-20T00:38:16;98921.00;;;28.40
11321;BMP180;5715;48.234;14.320;2023-08-20T00:41:03;98928.00;;;28.40
11321;BMP180;5715;48.234;14.320;2023-08-20T00:43:51;98926.00;;;28.40
11321;BMP180;5715;48.234;14.320;2023-08-20T00:46:39;98921.00;;;28.40
11321;BMP180;5715;48.234;14.320;2023-08-20T00:49:26;98926.00;;;28.30
11321;BMP180;5715;48.234;14.320;2023-08-20T00:52:16;98928.00;;;28.30
11321;BMP180;5715;48.234;14.320;2023-08-20T00:55:10;98929.00;;;28.20
11321;BMP180;5715;48.234;14.320;2023-08-20T00:57:58;98929.00;;;28.10
11321;BMP180;5715;48.234;14.320;2023-08-20T01:00:46;98931.00;;;28.00
11321;BMP180;5715;48.234;14.320;2023-08-20T01:03:34;98931.00;;;27.90
11321;BMP180;5715;48.234;14.320;2023-08-20T01:06:36;98927.00;;;28.00
11321;BMP180;5715;48.234;14.320;2023-08-20T01:12:54;98933.00;;;27.80
11321;BMP180;5715;48.234;14.320;2023-08-20T01:15:42;98932.00;;;27.80
11321;BMP180;5715;48.234;14.320;2023-08-20T01:18:30;98936.00;;;27.80
11321;BMP180;5715;48.234;14.320;2023-08-20T01:21:37;98936.00;;;27.80
11321;BMP180;5715;48.234;14.320;2023-08-20T01:28:28;98933.00;;;28.00
11321;BMP180;5715;48.234;14.320;2023-08-20T01:31:16;98942.00;;;27.90
11321;BMP180;5715;48.234;14.320;2023-08-20T01:34:06;98941.00;;;27.90
11321;BMP180;5715;48.234;14.320;2023-08-20T01:36:53;98943.00;;;27.80
11321;BMP180;5715;48.234;14.320;2023-08-20T01:39:41;98937.00;;;27.70
11321;BMP180;5715;48.234;14.320;2023-08-20T01:42:28;98944.00;;;27.60
11321;BMP180;5715;48.234;14.320;2023-08-20T01:45:16;98947.00;;;27.60
11321;BMP180;5715;48.234;14.320;2023-08-20T01:48:04;98948.00;;;27.60
11321;BMP180;5715;48.234;14.320;2023-08-20T01:50:51;98947.00;;;27.50
11321;BMP180;5715;48.234;14.320;2023-08-20T01:53:39;98948.00;;;27.50
11321;BMP180;5715;48.234;14.320;2023-08-20T01:56:26;98946.00;;;27.50
11321;BMP180;5715;48.234;14.320;2023-08-20T01:59:14;98947.00;;;27.50
11321;BMP180;5715;48.234;14.320;2023-08-20T02:02:01;98946.00;;;27.60
11321;BMP180;5715;48.234;14.320;2023-08-20T02:04:49;98952.00;;;27.70
11321;BMP180;5715;48.234;14.320;2023-08-20T02:07:37;98946.00;;;27.60
11321;BMP180;5715;48.234;14.320;2023-08-20T02:10:25;98949.00;;;27.80
11321;BMP180;5715;48.234;14.320;2023-08-20T02:13:12;98947.00;;;27.60
11321;BMP180;5715;48.234;14.320;2023-08-20T02:16:04;98940.00;;;27.70
11321;BMP180;5715;48.234;14.320;2023-08-20T02:18:52;98942.00;;;27.70
11321;BMP180;5715;48.234;14.320;2023-08-20T02:21:40;98944.00;;;27.70
11321;BMP180;5715;48.234;14.320;2023-08-20T02:24:28;98946.00;;;27.70
11321;BMP180;5715;48.234;14.320;2023-08-20T02:27:15;98952.00;;;27.70
11321;BMP180;5715;48.234;14.320;2023-08-20T02:30:04;98957.00;;;27.80
11321;BMP180;5715;48.234;14.320;2023-08-20T02:32:51;98953.00;;;27.60
11321;BMP180;5715;48.234;14.320;2023-08-20T02:35:39;98950.00;;;27.60
11321;BMP180;5715;48.234;14.320;2023-08-20T02:38:27;98958.00;;;27.50
11321;BMP180;5715;48.234;14.320;2023-08-20T02:41:14;98955.00;;;27.40
11321;BMP180;5715;48.234;14.320;2023-08-20T02:44:03;98950.00;;;27.40
11321;BMP180;5715;48.234;14.320;2023-08-20T02:46:51;98953.00;;;27.30
11321;BMP180;5715;48.234;14.320;2023-08-20T02:49:38;98950.00;;;27.30
11321;BMP180;5715;48.234;14.320;2023-08-20T02:52:26;98946.00;;;27.20
11321;BMP180;5715;48.234;14.320;2023-08-20T02:55:13;98951.00;;;27.20
11321;BMP180;5715;48.234;14.320;2023-08-20T02:58:01;98953.00;;;27.20
11321;BMP180;5715;48.234;14.320;2023-08-20T03:00:51;98956.00;;;27.20
11321;BMP180;5715;48.234;14.320;2023-08-20T03:03:38;98960.00;;;27.00
11321;BMP180;5715;48.234;14.320;2023-08-20T03:06:29;98959.00;;;27.10
11321;BMP180;5715;48.234;14.320;2023-08-20T03:09:17;98959.00;;;27.10
11321;BMP180;5715;48.234;14.320;2023-08-20T03:12:05;98961.00;;;27.00
11321;BMP180;5715;48.234;14.320;2023-08-20T03:14:52;98974.00;;;26.90
11321;BMP180;5715;48.234;14.320;2023-08-20T03:17:40;98979.00;;;26.80
11321;BMP180;5715;48.234;14.320;2023-08-20T03:20:28;98972.00;;;26.80
11321;BMP180;5715;48.234;14.320;2023-08-20T03:23:16;98975.00;;;26.80
11321;BMP180;5715;48.234;14.320;2023-08-20T03:26:03;98980.00;;;26.70
11321;BMP180;5715;48.234;14.320;2023-08-20T03:28:51;98982.00;;;26.60
11321;BMP180;5715;48.234;14.320;2023-08-20T03:31:39;98975.00;;;26.70
11321;BMP180;5715;48.234;14.320;2023-08-20T03:34:26;98978.00;;;26.70
11321;BMP180;5715;48.234;14.320;2023-08-20T03:37:14;98978.00;;;26.70
11321;BMP180;5715;48.234;14.320;2023-08-20T03:40:02;98970.00;;;26.70
11321;BMP180;5715;48.234;14.320;2023-08-20T03:42:52;98972.00;;;26.70
11321;BMP180;5715;48.234;14.320;2023-08-20T03:45:39;98970.00;;;26.70
11321;BMP180;5715;48.234;14.320;2023-08-20T03:48:28;98968.00;;;26.80
11321;BMP180;5715;48.234;14.320;2023-08-20T03:51:16;98970.00;;;26.70
11321;BMP180;5715;48.234;14.320;2023-08-20T03:54:04;98972.00;;;26.60
11321;BMP180;5715;48.234;14.320;2023-08-20T03:56:51;98967.00;;;26.60
11321;BMP180;5715;48.234;14.320;2023-08-20T03:59:39;98972.00;;;26.60
11321;BMP180;5715;48.234;14.320;2023-08-20T04:02:27;98974.00;;;26.40
11321;BMP180;5715;48.234;14.320;2023-08-20T04:05:14;98978.00;;;26.30
11321;BMP180;5715;48.234;14.320;2023-08-20T04:08:03;98973.00;;;26.40
11321;BMP180;5715;48.234;14.320;2023-08-20T04:10:52;98972.00;;;26.50
11321;BMP180;5715;48.234;14.320;2023-08-20T04:13:40;98971.00;;;26.60
11321;BMP180;5715;48.234;14.320;2023-08-20T04:16:30;98973.00;;;26.50
11321;BMP180;5715;48.234;14.320;2023-08-20T04:19:17;98974.00;;;26.40
11321;BMP180;5715;48.234;14.320;2023-08-20T04:22:05;98976.00;;;26.50
11321;BMP180;5715;48.234;14.320;2023-08-20T04:24:52;98979.00;;;26.50
11321;BMP180;5715;48.234;14.320;2023-08-20T04:27:40;98974.00;;;26.50
11321;BMP180;5715;48.234;14.320;2023-08-20T04:30:28;98985.00;;;26.70
11321;BMP180;5715;48.234;14.320;2023-08-20T04:33:15;98984.00;;;26.50
11321;BMP180;5715;48.234;14.320;2023-08-20T04:36:03;98988.00;;;26.60
11321;BMP180;5715;48.234;14.320;2023-08-20T04:38:50;98991.00;;;26.50
11321;BMP180;5715;48.234;14.320;2023-08-20T04:41:38;98988.00;;;26.60
11321;BMP180;5715;48.234;14.320;2023-08-20T04:44:28;98993.00;;;26.80
11321;BMP180;5715;48.234;14.320;2023-08-20T04:47:16;98991.00;;;26.90
11321;BMP180;5715;48.234;14.320;2023-08-20T04:50:04;98989.00;;;27.20
11321;BMP180;5715;48.234;14.320;2023-08-20T04:52:55;98991.00;;;28.20
11321;BMP180;5715;48.234;14.320;2023-08-20T04:55:42;98996.00;;;28.40
11321;BMP180;5715;48.234;14.320;2023-08-20T04:58:30;99005.00;;;29.30
11321;BMP180;5715;48.234;14.320;2023-08-20T05:01:18;99006.00;;;30.00
11321;BMP180;5715;48.234;14.320;2023-08-20T05:04:05;99001.00;;;30.60
11321;BMP180;5715;48.234;14.320;2023-08-20T05:06:53;99000.00;;;31.50
11321;BMP180;5715;48.234;14.320;2023-08-20T05:09:41;99001.00;;;31.90
11321;BMP180;5715;48.234;14.320;2023-08-20T05:12:28;99003.00;;;32.20
11321;BMP180;5715;48.234;14.320;2023-08-20T05:15:16;99016.00;;;33.10
11321;BMP180;5715;48.234;14.320;2023-08-20T05:18:04;99014.00;;;33.50
11321;BMP180;5715;48.234;14.320;2023-08-20T05:20:51;99018.00;;;34.00
11321;BMP180;5715;48.234;14.320;2023-08-20T05:23:40;99028.00;;;34.30
11321;BMP180;5715;48.234;14.320;2023-08-20T05:26:27;99023.00;;;34.80
11321;BMP180;5715;48.234;14.320;2023-08-20T05:29:15;99030.00;;;35.10
11321;BMP180;5715;48.234;14.320;2023-08-20T05:32:03;99032.00;;;35.40
11321;BMP180;5715;48.234;14.320;2023-08-20T05:34:50;99027.00;;;35.80
11321;BMP180;5715;48.234;14.320;2023-08-20T05:37:38;99023.00;;;36.10
11321;BMP180;5715;48.234;14.320;2023-08-20T05:40:25;99032.00;;;36.30
11321;BMP180;5715;48.234;14.320;2023-08-20T05:43:13;99038.00;;;36.70
11321;BMP180;5715;48.234;14.320;2023-08-20T05:46:00;99035.00;;;37.10
11321;BMP180;5715;48.234;14.320;2023-08-20T05:48:48;99044.00;;;37.10
11321;BMP180;5715;48.234;14.320;2023-08-20T05:51:36;99039.00;;;36.70
11321;BMP180;5715;48.234;14.320;2023-08-20T05:54:23;99041.00;;;36.40
11321;BMP180;5715;48.234;14.320;2023-08-20T05:57:11;99054.00;;;36.40
11321;BMP180;5715;48.234;14.320;2023-08-20T05:59:58;99053.00;;;35.60
11321;BMP180;5715;48.234;14.320;2023-08-20T06:02:46;99050.00;;;34.70
11321;BMP180;5715;48.234;14.320;2023-08-20T06:05:34;99051.00;;;33.90
11321;BMP180;5715;48.234;14.320;2023-08-20T06:08:21;99055.00;;;33.20
11321;BMP180;5715;48.234;14.320;2023-08-20T06:11:09;99057.00;;;32.80
11321;BMP180;5715;48.234;14.320;2023-08-20T06:13:56;99058.00;;;32.60
11321;BMP180;5715;48.234;14.320;2023-08-20T06:16:44;99051.00;;;32.40
11321;BMP180;5715;48.234;14.320;2023-08-20T06:19:32;99050.00;;;32.20
11321;BMP180;5715;48.234;14.320;2023-08-20T06:22:21;99051.00;;;32.20
11321;BMP180;5715;48.234;14.320;2023-08-20T06:25:08;99050.00;;;32.40
11321;BMP180;5715;48.234;14.320;2023-08-20T06:27:56;99041.00;;;32.40
11321;BMP180;5715;48.234;14.320;2023-08-20T06:30:45;99040.00;;;32.30
11321;BMP180;5715;48.234;14.320;2023-08-20T06:33:32;99044.00;;;32.40
11321;BMP180;5715;48.234;14.320;2023-08-20T06:36:20;99038.00;;;32.50
11321;BMP180;5715;48.234;14.320;2023-08-20T06:39:07;99044.00;;;32.40
11321;BMP180;5715;48.234;14.320;2023-08-20T06:41:55;99035.00;;;32.50
11321;BMP180;5715;48.234;14.320;2023-08-20T06:44:43;99043.00;;;32.60
11321;BMP180;5715;48.234;14.320;2023-08-20T06:47:30;99043.00;;;32.30
11321;BMP180;5715;48.234;14.320;2023-08-20T06:50:18;99049.00;;;32.60
11321;BMP180;5715;48.234;14.320;2023-08-20T06:53:05;99044.00;;;32.80
11321;BMP180;5715;48.234;14.320;2023-08-20T06:55:53;99042.00;;;33.00
11321;BMP180;5715;48.234;14.320;2023-08-20T06:58:42;99050.00;;;33.20
11321;BMP180;5715;48.234;14.320;2023-08-20T07:01:29;99047.00;;;33.40
11321;BMP180;5715;48.234;14.320;2023-08-20T07:04:17;99051.00;;;33.60
11321;BMP180;5715;48.234;14.320;2023-08-20T07:07:05;99056.00;;;33.40
11321;BMP180;5715;48.234;14.320;2023-08-20T07:09:52;99062.00;;;33.60
11321;BMP180;5715;48.234;14.320;2023-08-20T07:12:40;99075.00;;;33.30
11321;BMP180;5715;48.234;14.320;2023-08-20T07:15:29;99076.00;;;33.50
11321;BMP180;5715;48.234;14.320;2023-08-20T07:18:16;99073.00;;;33.50
11321;BMP180;5715;48.234;14.320;2023-08-20T07:21:04;99082.00;;;33.40
11321;BMP180;5715;48.234;14.320;2023-08-20T07:23:52;99078.00;;;33.40
11321;BMP180;5715;48.234;14.320;2023-08-20T07:26:39;99079.00;;;33.90
11321;BMP180;5715;48.234;14.320;2023-08-20T07:29:27;99082.00;;;34.20
11321;BMP180;5715;48.234;14.320;2023-08-20T07:32:18;99084.00;;;34.10
11321;BMP180;5715;48.234;14.320;2023-08-20T07:35:06;99085.00;;;34.70
11321;BMP180;5715;48.234;14.320;2023-08-20T07:37:57;99082.00;;;34.40
11321;BMP180;5715;48.234;14.320;2023-08-20T07:40:45;99081.00;;;34.60
11321;BMP180;5715;48.234;14.320;2023-08-20T07:43:32;99090.00;;;34.40
11321;BMP180;5715;48.234;14.320;2023-08-20T07:46:20;99082.00;;;34.80
11321;BMP180;5715;48.234;14.320;2023-08-20T07:49:08;99089.00;;;35.00
11321;BMP180;5715;48.234;14.320;2023-08-20T07:51:55;99087.00;;;35.60
11321;BMP180;5715;48.234;14.320;2023-08-20T07:54:43;99083.00;;;35.30
11321;BMP180;5715;48.234;14.320;2023-08-20T07:57:31;99082.00;;;35.50
11321;BMP180;5715;48.234;14.320;2023-08-20T08:00:20;99089.00;;;35.70
11321;BMP180;5715;48.234;14.320;2023-08-20T08:03:07;99084.00;;;35.50
11321;BMP180;5715;48.234;14.320;2023-08-20T08:05:57;99086.00;;;35.40
11321;BMP180;5715;48.234;14.320;2023-08-20T08:08:44;99086.00;;;35.50
11321;BMP180;5715;48.234;14.320;2023-08-20T08:11:32;99086.00;;;35.60
11321;BMP180;5715;48.234;14.320;2023-08-20T08:14:19;99089.00;;;35.90
11321;BMP180;5715;48.234;14.320;2023-08-20T08:17:07;99087.00;;;36.20
11321;BMP180;5715;48.234;14.320;2023-08-20T08:19:54;99095.00;;;36.70
11321;BMP180;5715;48.234;14.320;2023-08-20T08:22:42;99085.00;;;36.40
11321;BMP180;5715;48.234;14.320;2023-08-20T08:25:30;99086.00;;;36.60
11321;BMP180;5715;48.234;14.320;2023-08-20T08:28:18;99091.00;;;37.00
11321;BMP180;5715;48.234;14.320;2023-08-20T08:31:05;99086.00;;;36.80
11321;BMP180;5715;48.234;14.320;2023-08-20T08:33:54;99083.00;;;37.20
11321;BMP180;5715;48.234;14.320;2023-08-20T08:36:42;99091.00;;;37.00
11321;BMP180;5715;48.234;14.320;2023-08-20T08:39:29;99087.00;;;37.40
11321;BMP180;5715;48.234;14.320;2023-08-20T08:42:22;99082.00;;;38.00
11321;BMP180;5715;48.234;14.320;2023-08-20T08:45:11;99079.00;;;38.00
11321;BMP180;5715;48.234;14.320;2023-08-20T08:47:59;99078.00;;;38.50
11321;BMP180;5715;48.234;14.320;2023-08-20T08:50:47;99073.00;;;38.50
11321;BMP180;5715;48.234;14.320;2023-08-20T08:53:36;99076.00;;;38.60
11321;BMP180;5715;48.234;14.320;2023-08-20T08:56:23;99076.00;;;39.00
11321;BMP180;5715;48.234;14.320;2023-08-20T08:59:11;99075.00;;;39.20
11321;BMP180;5715;48.234;14.320;2023-08-20T09:01:58;99077.00;;;39.30
11321;BMP180;5715;48.234;14.320;2023-08-20T09:04:46;99085.00;;;39.30
11321;BMP180;5715;48.234;14.320;2023-08-20T09:07:33;99079.00;;;38.70
11321;BMP180;5715;48.234;14.320;2023-08-20T09:10:21;99073.00;;;38.90
11321;BMP180;5715;48.234;14.320;2023-08-20T09:13:09;99081.00;;;39.60
11321;BMP180;5715;48.234;14.320;2023-08-20T09:15:56;99081.00;;;39.80
11321;BMP180;5715;48.234;14.320;2023-08-20T09:18:45;99080.00;;;40.10
11321;BMP180;5715;48.234;14.320;2023-08-20T09:21:33;99083.00;;;40.70
11321;BMP180;5715;48.234;14.320;2023-08-20T09:24:38;99086.00;;;41.00
11321;BMP180;5715;48.234;14.320;2023-08-20T09:27:26;99088.00;;;41.00
11321;BMP180;5715;48.234;14.320;2023-08-20T09:30:18;99080.00;;;40.20
11321;BMP180;5715;48.234;14.320;2023-08-20T09:33:11;99085.00;;;40.10
11321;BMP180;5715;48.234;14.320;2023-08-20T09:35:59;99084.00;;;40.30
11321;BMP180;5715;48.234;14.320;2023-08-20T09:38:51;99088.00;;;40.10
11321;BMP180;5715;48.234;14.320;2023-08-20T09:41:39;99097.00;;;39.90
11321;BMP180;5715;48.234;14.320;2023-08-20T09:44:33;99085.00;;;40.00
11321;BMP180;5715;48.234;14.320;2023-08-20T09:47:25;99085.00;;;40.20
11321;BMP180;5715;48.234;14.320;2023-08-20T09:50:17;99090.00;;;40.70
11321;BMP180;5715;48.234;14.320;2023-08-20T09:53:39;99086.00;;;41.20
11321;BMP180;5715;48.234;14.320;2023-08-20T09:56:37;99087.00;;;40.90
11321;BMP180;5715;48.234;14.320;2023-08-20T09:59:26;99091.00;;;40.90
11321;BMP180;5715;48.234;14.320;2023-08-20T10:02:14;99082.00;;;41.10
11321;BMP180;5715;48.234;14.320;2023-08-20T10:05:06;99079.00;;;41.30
11321;BMP180;5715;48.234;14.320;2023-08-20T10:07:57;99083.00;;;41.60
11321;BMP180;5715;48.234;14.320;2023-08-20T10:10:45;99076.00;;;42.20
11321;BMP180;5715;48.234;14.320;2023-08-20T10:13:33;99076.00;;;42.20
11321;BMP180;5715;48.234;14.320;2023-08-20T10:16:21;99077.00;;;42.20
11321;BMP180;5715;48.234;14.320;2023-08-20T10:19:11;99075.00;;;41.20
11321;BMP180;5715;48.234;14.320;2023-08-20T10:22:03;99070.00;;;41.60
11321;BMP180;5715;48.234;14.320;2023-08-20T10:24:52;99072.00;;;41.20
11321;BMP180;5715;48.234;14.320;2023-08-20T10:27:41;99074.00;;;40.90
11321;BMP180;5715;48.234;14.320;2023-08-20T10:30:30;99072.00;;;40.60
11321;BMP180;5715;48.234;14.320;2023-08-20T10:33:17;99071.00;;;40.70
11321;BMP180;5715;48.234;14.320;2023-08-20T10:36:24;99067.00;;;40.80
11321;BMP180;5715;48.234;14.320;2023-08-20T10:39:22;99062.00;;;40.70
11321;BMP180;5715;48.234;14.320;2023-08-20T10:45:08;99062.00;;;40.60
11321;BMP180;5715;48.234;14.320;2023-08-20T10:47:58;99060.00;;;40.00
11321;BMP180;5715;48.234;14.320;2023-08-20T10:50:46;99064.00;;;40.40
11321;BMP180;5715;48.234;14.320;2023-08-20T10:53:34;99064.00;;;40.80
11321;BMP180;5715;48.234;14.320;2023-08-20T10:56:22;99062.00;;;40.90
11321;BMP180;5715;48.234;14.320;2023-08-20T10:59:25;99052.00;;;41.00
11321;BMP180;5715;48.234;14.320;2023-08-20T11:02:15;99058.00;;;41.20
11321;BMP180;5715;48.234;14.320;2023-08-20T11:05:04;99056.00;;;41.10
11321;BMP180;5715;48.234;14.320;2023-08-20T11:08:03;99052.00;;;40.50
11321;BMP180;5715;48.234;14.320;2023-08-20T11:10:53;99059.00;;;40.50
11321;BMP180;5715;48.234;14.320;2023-08-20T11:13:41;99060.00;;;40.80
11321;BMP180;5715;48.234;14.320;2023-08-20T11:16:30;99061.00;;;41.00
11321;BMP180;5715;48.234;14.320;2023-08-20T11:19:23;99055.00;;;41.00
11321;BMP180;5715;48.234;14.320;2023-08-20T11:22:10;99054.00;;;40.60
11321;BMP180;5715;48.234;14.320;2023-08-20T11:25:00;99050.00;;;40.60
11321;BMP180;5715;48.234;14.320;2023-08-20T11:27:47;99062.00;;;40.60
11321;BMP180;5715;48.234;14.320;2023-08-20T11:30:36;99058.00;;;40.40
11321;BMP180;5715;48.234;14.320;2023-08-20T11:33:23;99061.00;;;40.40
11321;BMP180;5715;48.234;14.320;2023-08-20T11:36:11;99059.00;;;40.50
11321;BMP180;5715;48.234;14.320;2023-08-20T11:38:59;99064.00;;;40.30
11321;BMP180;5715;48.234;14.320;2023-08-20T11:41:47;99065.00;;;40.10
11321;BMP180;5715;48.234;14.320;2023-08-20T11:44:44;99066.00;;;40.10
11321;BMP180;5715;48.234;14.320;2023-08-20T11:47:40;99053.00;;;40.40
11321;BMP180;5715;48.234;14.320;2023-08-20T11:50:28;99051.00;;;40.40
11321;BMP180;5715;48.234;14.320;2023-08-20T11:53:23;99062.00;;;40.90
11321;BMP180;5715;48.234;14.320;2023-08-20T11:56:13;99063.00;;;41.50
11321;BMP180;5715;48.234;14.320;2023-08-20T11:59:02;99056.00;;;41.60
11321;BMP180;5715;48.234;14.320;2023-08-20T12:02:08;99054.00;;;41.40
11321;BMP180;5715;48.234;14.320;2023-08-20T12:04:56;99057.00;;;41.60
11321;BMP180;5715;48.234;14.320;2023-08-20T12:08:02;99043.00;;;41.90
11321;BMP180;5715;48.234;14.320;2023-08-20T12:10:49;99047.00;;;41.70
11321;BMP180;5715;48.234;14.320;2023-08-20T12:13:37;99055.00;;;41.70
11321;BMP180;5715;48.234;14.320;2023-08-20T12:16:25;99049.00;;;41.90
11321;BMP180;5715;48.234;14.320;2023-08-20T12:19:13;99047.00;;;42.10
11321;BMP180;5715;48.234;14.320;2023-08-20T12:22:01;99050.00;;;42.10
11321;BMP180;5715;48.234;14.320;2023-08-20T12:24:49;99052.00;;;42.30
11321;BMP180;5715;48.234;14.320;2023-08-20T12:27:39;99044.00;;;42.30
11321;BMP180;5715;48.234;14.320;2023-08-20T12:30:26;99037.00;;;42.30
11321;BMP180;5715;48.234;14.320;2023-08-20T12:33:14;99037.00;;;42.40
11321;BMP180;5715;48.234;14.320;2023-08-20T12:36:02;99042.00;;;42.10
11321;BMP180;5715;48.234;14.320;2023-08-20T12:38:50;99035.00;;;41.80
11321;BMP180;5715;48.234;14.320;2023-08-20T12:41:37;99032.00;;;41.70
11321;BMP180;5715;48.234;14.320;2023-08-20T12:44:26;99028.00;;;41.90
11321;BMP180;5715;48.234;14.320;2023-08-20T12:47:13;99027.00;;;41.80
11321;BMP180;5715;48.234;14.320;2023-08-20T12:50:01;99023.00;;;41.70
11321;BMP180;5715;48.234;14.320;2023-08-20T12:52:52;99025.00;;;41.80
11321;BMP180;5715;48.234;14.320;2023-08-20T12:55:39;99027.00;;;41.70
11321;BMP180;5715;48.234;14.320;2023-08-20T12:58:27;99023.00;;;41.80
11321;BMP180;5715;48.234;14.320;2023-08-20T13:01:15;99021.00;;;41.80
11321;BMP180;5715;48.234;14.320;2023-08-20T13:04:03;99020.00;;;42.00
11321;BMP180;5715;48.234;14.320;2023-08-20T13:06:51;99011.00;;;41.90
11321;BMP180;5715;48.234;14.320;2023-08-20T13:09:39;99012.00;;;41.90
11321;BMP180;5715;48.234;14.320;2023-08-20T13:12:28;99012.00;;;41.90
11321;BMP180;5715;48.234;14.320;2023-08-20T13:15:18;99010.00;;;42.10
11321;BMP180;5715;48.234;14.320;2023-08-20T13:18:07;99006.00;;;42.40
11321;BMP180;5715;48.234;14.320;2023-08-20T13:20:56;99010.00;;;42.80
11321;BMP180;5715;48.234;14.320;2023-08-20T13:23:43;99000.00;;;42.90
11321;BMP180;5715;48.234;14.320;2023-08-20T13:26:31;98995.00;;;43.00
11321;BMP180;5715;48.234;14.320;2023-08-20T13:29:19;98989.00;;;43.00
11321;BMP180;5715;48.234;14.320;2023-08-20T13:32:07;98996.00;;;43.40
11321;BMP180;5715;48.234;14.320;2023-08-20T13:34:54;98984.00;;;43.30
11321;BMP180;5715;48.234;14.320;2023-08-20T13:37:42;98985.00;;;43.70
11321;BMP180;5715;48.234;14.320;2023-08-20T13:40:30;98982.00;;;43.90
11321;BMP180;5715;48.234;14.320;2023-08-20T13:43:18;98988.00;;;43.90
11321;BMP180;5715;48.234;14.320;2023-08-20T13:46:05;98981.00;;;44.20
11321;BMP180;5715;48.234;14.320;2023-08-20T13:48:53;98979.00;;;44.00
11321;BMP180;5715;48.234;14.320;2023-08-20T13:51:41;98987.00;;;44.40
11321;BMP180;5715;48.234;14.320;2023-08-20T13:54:28;98985.00;;;44.30
11321;BMP180;5715;48.234;14.320;2023-08-20T13:57:16;98984.00;;;44.40
11321;BMP180;5715;48.234;14.320;2023-08-20T14:00:05;98981.00;;;44.70
11321;BMP180;5715;48.234;14.320;2023-08-20T14:02:58;98977.00;;;44.30
11321;BMP180;5715;48.234;14.320;2023-08-20T14:05:45;98972.00;;;43.80
11321;BMP180;5715;48.234;14.320;2023-08-20T14:08:33;98975.00;;;44.40
11321;BMP180;5715;48.234;14.320;2023-08-20T14:11:21;98973.00;;;44.30
11321;BMP180;5715;48.234;14.320;2023-08-20T14:14:08;98977.00;;;44.40
11321;BMP180;5715;48.234;14.320;2023-08-20T14:16:56;98971.00;;;44.30
11321;BMP180;5715;48.234;14.320;2023-08-20T14:19:43;98967.00;;;44.30
11321;BMP180;5715;48.234;14.320;2023-08-20T14:22:31;98969.00;;;44.60
11321;BMP180;5715;48.234;14.320;2023-08-20T14:25:18;98974.00;;;44.70
11321;BMP180;5715;48.234;14.320;2023-08-20T14:28:07;98974.00;;;44.50
11321;BMP180;5715;48.234;14.320;2023-08-20T14:30:55;98966.00;;;44.40
11321;BMP180;5715;48.234;14.320;2023-08-20T14:33:43;98971.00;;;44.50
11321;BMP180;5715;48.234;14.320;2023-08-20T14:36:31;98968.00;;;44.60
11321;BMP180;5715;48.234;14.320;2023-08-20T14:39:20;98958.00;;;44.20
11321;BMP180;5715;48.234;14.320;2023-08-20T14:42:08;98953.00;;;44.60
11321;BMP180;5715;48.234;14.320;2023-08-20T14:44:56;98952.00;;;44.10
11321;BMP180;5715;48.234;14.320;2023-08-20T14:47:44;98954.00;;;44.20
11321;BMP180;5715;48.234;14.320;2023-08-20T14:50:31;98957.00;;;43.90
11321;BMP180;5715;48.234;14.320;2023-08-20T14:53:19;98951.00;;;44.10
11321;BMP180;5715;48.234;14.320;2023-08-20T14:56:10;98951.00;;;44.20
11321;BMP180;5715;48.234;14.320;2023-08-20T14:58:57;98947.00;;;44.10
11321;BMP180;5715;48.234;14.320;2023-08-20T15:01:45;98942.00;;;44.10
11321;BMP180;5715;48.234;14.320;2023-08-20T15:04:32;98939.00;;;43.90
11321;BMP180;5715;48.234;14.320;2023-08-20T15:07:20;98935.00;;;44.10
11321;BMP180;5715;48.234;14.320;2023-08-20T15:10:09;98933.00;;;43.90
11321;BMP180;5715;48.234;14.320;2023-08-20T15:12:56;98936.00;;;44.10
11321;BMP180;5715;48.234;14.320;2023-08-20T15:15:44;98933.00;;;44.10
11321;BMP180;5715;48.234;14.320;2023-08-20T15:18:31;98937.00;;;44.20
11321;BMP180;5715;48.234;14.320;2023-08-20T15:21:19;98944.00;;;43.90
11321;BMP180;5715;48.234;14.320;2023-08-20T15:24:07;98939.00;;;44.20
11321;BMP180;5715;48.234;14.320;2023-08-20T15:26:54;98946.00;;;44.40
11321;BMP180;5715;48.234;14.320;2023-08-20T15:29:42;98946.00;;;44.20
11321;BMP180;5715;48.234;14.320;2023-08-20T15:32:30;98942.00;;;44.10
11321;BMP180;5715;48.234;14.320;2023-08-20T15:35:18;98937.00;;;44.20
11321;BMP180;5715;48.234;14.320;2023-08-20T15:38:06;98942.00;;;44.00
11321;BMP180;5715;48.234;14.320;2023-08-20T15:40:55;98940.00;;;43.90
11321;BMP180;5715;48.234;14.320;2023-08-20T15:43:43;98939.00;;;44.00
11321;BMP180;5715;48.234;14.320;2023-08-20T15:46:30;98939.00;;;43.80
11321;BMP180;5715;48.234;14.320;2023-08-20T15:49:18;98934.00;;;43.90
11321;BMP180;5715;48.234;14.320;2023-08-20T15:52:05;98929.00;;;43.80
11321;BMP180;5715;48.234;14.320;2023-08-20T15:54:53;98923.00;;;43.70
11321;BMP180;5715;48.234;14.320;2023-08-20T15:57:41;98924.00;;;43.40
11321;BMP180;5715;48.234;14.320;2023-08-20T16:00:28;98917.00;;;43.70
11321;BMP180;5715;48.234;14.320;2023-08-20T16:03:17;98917.00;;;43.50
11321;BMP180;5715;48.234;14.320;2023-08-20T16:06:05;98910.00;;;43.70
11321;BMP180;5715;48.234;14.320;2023-08-20T16:08:53;98906.00;;;43.40
11321;BMP180;5715;48.234;14.320;2023-08-20T16:11:41;98914.00;;;43.10
11321;BMP180;5715;48.234;14.320;2023-08-20T16:14:28;98910.00;;;43.30
11321;BMP180;5715;48.234;14.320;2023-08-20T16:17:16;98904.00;;;43.30
11321;BMP180;5715;48.234;14.320;2023-08-20T16:20:04;98896.00;;;43.10
11321;BMP180;5715;48.234;14.320;2023-08-20T16:22:54;98904.00;;;43.10